Time;durP1;ratioP1;P1;durP2;ratioP2;P2;SDS_P1;SDS_P2;PMS_P1;PMS_P2;Temp;Humidity;BMP_temperature;BMP_pressure;BME280_temperature;BME280_humidity;BME280_pressure;Samples;Min_cycle;Max_cycle;Signal;HPM_P1;HPM_P2
2023/03/22 00:00:51;;;;;;;36.90;28.98;;;16.40;79.80;;;;;;6215325;23;20027;-79
2023/03/22 00:03:16;;;;;;;31.45;25.63;;;16.40;79.80;;;;;;6216298;23;19996;-80
2023/03/22 00:05:42;;;;;;;36.05;27.48;;;16.40;79.80;;;;;;6214039;23;20001;-80
2023/03/22 00:08:08;;;;;;;35.28;28.58;;;16.40;80.00;;;;;;6212535;23;20001;-80
2023/03/22 00:10:36;;;;;;;35.90;27.40;;;16.40;80.00;;;;;;6214986;23;19996;-80
2023/03/22 00:13:04;;;;;;;34.30;27.10;;;16.40;80.50;;;;;;6214974;23;20001;-79
2023/03/22 00:15:30;;;;;;;32.70;26.27;;;16.40;80.50;;;;;;6215266;23;20307;-79
2023/03/22 00:17:57;;;;;;;34.03;26.95;;;16.40;80.50;;;;;;6215721;23;20004;-79
2023/03/22 00:20:24;;;;;;;32.60;26.45;;;16.40;80.10;;;;;;6215989;23;20084;-79
2023/03/22 00:22:50;;;;;;;33.05;27.45;;;16.40;80.20;;;;;;6215503;23;20320;-79
2023/03/22 00:25:16;;;;;;;31.58;25.27;;;16.30;80.50;;;;;;6215604;23;20006;-79
2023/03/22 00:27:42;;;;;;;31.85;24.90;;;16.30;80.60;;;;;;6216237;23;19997;-79
2023/03/22 00:30:09;;;;;;;32.70;27.05;;;16.30;80.80;;;;;;6215830;23;19997;-78
2023/03/22 00:32:41;;;;;;;34.67;27.90;;;16.20;80.70;;;;;;6216251;23;20004;-79
2023/03/22 00:35:08;;;;;;;37.20;27.98;;;16.30;80.70;;;;;;6214822;23;20000;-78
2023/03/22 00:37:37;;;;;;;36.10;28.77;;;16.30;80.60;;;;;;6215928;23;20004;-80
2023/03/22 00:40:07;;;;;;;35.65;27.75;;;16.30;80.20;;;;;;6215897;23;20312;-80
2023/03/22 00:42:35;;;;;;;31.05;25.60;;;16.30;80.60;;;;;;6215925;23;20013;-80
2023/03/22 00:45:00;;;;;;;34.25;29.00;;;16.40;80.20;;;;;;6215550;23;20107;-80
2023/03/22 00:47:26;;;;;;;34.72;27.80;;;16.30;80.50;;;;;;6215772;23;20789;-80
2023/03/22 00:49:52;;;;;;;34.17;27.40;;;16.40;80.50;;;;;;6215435;23;20066;-80
2023/03/22 00:52:17;;;;;;;34.58;27.45;;;16.40;80.50;;;;;;6188788;23;20096;-79
2023/03/22 00:54:43;;;;;;;36.00;29.05;;;16.30;80.50;;;;;;6215303;23;20004;-79
2023/03/22 00:57:09;;;;;;;36.20;28.83;;;16.40;80.60;;;;;;6215006;23;20005;-79
2023/03/22 00:59:37;;;;;;;36.92;29.00;;;16.40;80.50;;;;;;6188708;23;20080;-79
2023/03/22 01:02:04;;;;;;;35.42;27.33;;;16.40;80.50;;;;;;6215363;23;20079;-79
2023/03/22 01:04:30;;;;;;;37.97;29.73;;;16.40;80.60;;;;;;6215133;23;20007;-79
2023/03/22 01:07:00;;;;;;;37.22;29.27;;;16.40;80.60;;;;;;6215511;23;20051;-78
2023/03/22 01:09:28;;;;;;;33.50;26.73;;;16.40;80.40;;;;;;6188677;23;20011;-79
2023/03/22 01:11:57;;;;;;;37.80;29.85;;;16.40;80.30;;;;;;6215619;23;20455;-78
2023/03/22 01:14:25;;;;;;;34.17;28.47;;;16.30;80.40;;;;;;6215449;23;20008;-79
2023/03/22 01:16:56;;;;;;;38.35;29.63;;;16.40;80.10;;;;;;6214992;23;20251;-80
2023/03/22 01:19:22;;;;;;;36.47;29.58;;;16.40;80.60;;;;;;6183064;23;20100;-79
2023/03/22 01:21:48;;;;;;;35.70;27.88;;;16.40;80.00;;;;;;6185160;23;20005;-79
2023/03/22 01:24:15;;;;;;;36.85;28.50;;;16.40;80.10;;;;;;6184907;23;20475;-79
2023/03/22 01:26:41;;;;;;;36.10;29.50;;;16.40;80.40;;;;;;6184980;23;20001;-79
2023/03/22 01:29:07;;;;;;;36.90;29.20;;;16.40;80.80;;;;;;6185352;23;20097;-79
2023/03/22 01:31:33;;;;;;;36.30;29.75;;;16.40;80.80;;;;;;6185017;23;20005;-79
2023/03/22 01:33:58;;;;;;;35.00;29.27;;;16.30;80.80;;;;;;6185602;23;20035;-79
2023/03/22 01:36:24;;;;;;;34.13;28.27;;;16.30;81.00;;;;;;6184409;23;20001;-79
2023/03/22 01:38:50;;;;;;;36.20;29.15;;;16.30;80.60;;;;;;6183833;23;20009;-80
2023/03/22 01:41:16;;;;;;;31.55;26.60;;;16.30;81.00;;;;;;6184796;23;20013;-79
2023/03/22 01:43:42;;;;;;;35.13;28.40;;;16.30;81.10;;;;;;6185073;23;20627;-79
2023/03/22 01:46:08;;;;;;;35.13;29.50;;;16.30;80.80;;;;;;6184796;23;20001;-79
2023/03/22 01:48:44;;;;;;;37.63;29.92;;;16.30;81.30;;;;;;6185076;23;20005;-79
2023/03/22 01:51:17;;;;;;;36.90;29.35;;;16.30;81.00;;;;;;6184435;23;20015;-79
2023/03/22 01:53:50;;;;;;;38.47;30.17;;;16.30;81.40;;;;;;6185135;23;20005;-80
2023/03/22 01:56:18;;;;;;;34.78;29.10;;;16.30;81.30;;;;;;6184975;23;20005;-80
2023/03/22 01:58:47;;;;;;;34.63;28.98;;;16.20;81.20;;;;;;6184648;23;20001;-79
2023/03/22 02:01:13;;;;;;;36.63;30.55;;;16.20;81.10;;;;;;6184631;23;20028;-79
2023/03/22 02:03:47;;;;;;;37.13;30.23;;;16.30;80.60;;;;;;6184989;23;20035;-79
2023/03/22 02:06:13;;;;;;;38.72;30.30;;;16.30;80.90;;;;;;6183526;23;20005;-79
2023/03/22 02:08:41;;;;;;;37.53;29.40;;;16.30;80.60;;;;;;6185201;23;20035;-79
2023/03/22 02:11:16;;;;;;;35.85;28.67;;;16.20;81.00;;;;;;6182337;23;20044;-79
2023/03/22 02:14:08;;;;;;;40.50;30.27;;;16.20;81.10;;;;;;6185330;23;20519;-78
2023/03/22 02:16:39;;;;;;;37.63;28.80;;;16.30;81.20;;;;;;6184662;23;20075;-79
2023/03/22 02:19:41;;;;;;;37.28;27.98;;;16.30;81.30;;;;;;6189002;23;20373;-79
2023/03/22 02:22:44;;;;;;;36.60;29.80;;;16.20;81.30;;;;;;6188602;23;20008;-79
2023/03/22 02:25:40;;;;;;;35.33;27.92;;;16.20;80.80;;;;;;6187513;23;20009;-79
2023/03/22 02:28:18;;;;;;;35.33;29.00;;;16.20;81.20;;;;;;6215248;23;20343;-79
2023/03/22 02:31:13;;;;;;;40.40;29.35;;;16.20;81.20;;;;;;6214692;23;20004;-79
2023/03/22 02:33:53;;;;;;;36.58;29.08;;;16.20;80.90;;;;;;6214925;23;20068;-80
2023/03/22 02:36:46;;;;;;;38.45;30.02;;;16.20;81.40;;;;;;6214462;23;19996;-80
2023/03/22 02:39:23;;;;;;;37.05;29.88;;;16.20;80.80;;;;;;6188472;23;20040;-79
2023/03/22 02:42:26;;;;;;;38.95;30.98;;;16.20;81.20;;;;;;6215095;23;20001;-79
2023/03/22 02:45:19;;;;;;;35.75;28.25;;;16.20;81.10;;;;;;6214440;23;20028;-79
2023/03/22 02:47:53;;;;;;;36.33;29.10;;;16.20;81.00;;;;;;6214263;23;19997;-80
2023/03/22 02:50:42;;;;;;;39.65;30.45;;;16.10;80.80;;;;;;6214372;23;20008;-80
2023/03/22 02:53:16;;;;;;;37.45;30.67;;;16.00;80.80;;;;;;6214684;23;20024;-80
2023/03/22 02:56:01;;;;;;;37.00;30.15;;;16.10;81.20;;;;;;6213611;23;20001;-80
2023/03/22 02:58:36;;;;;;;37.10;28.90;;;16.00;80.50;;;;;;6214616;23;20097;-80
2023/03/22 03:01:07;;;;;;;38.65;30.70;;;16.00;81.00;;;;;;6213479;23;20320;-79
2023/03/22 03:03:36;;;;;;;37.60;30.92;;;16.00;81.10;;;;;;6213516;23;20100;-80
2023/03/22 03:06:13;;;;;;;41.13;31.17;;;16.00;81.20;;;;;;6213258;23;20001;-80
2023/03/22 03:08:40;;;;;;;36.13;29.05;;;16.00;81.20;;;;;;6187871;23;20001;-79
2023/03/22 03:11:06;;;;;;;36.40;29.58;;;16.00;81.30;;;;;;6214074;23;20465;-80
2023/03/22 03:13:32;;;;;;;37.53;30.35;;;16.00;80.70;;;;;;6214403;23;20005;-79
2023/03/22 03:16:00;;;;;;;38.00;30.33;;;16.00;81.10;;;;;;6187232;23;20438;-79
2023/03/22 03:18:45;;;;;;;37.63;30.65;;;16.10;81.10;;;;;;6214099;23;20000;-80
2023/03/22 03:21:31;;;;;;;34.83;29.83;;;16.10;81.00;;;;;;6211752;23;20048;-79
2023/03/22 03:24:17;;;;;;;39.38;30.25;;;16.10;80.40;;;;;;6215588;23;20079;-80
2023/03/22 03:26:51;;;;;;;37.72;30.30;;;16.10;80.30;;;;;;6215983;23;19997;-80
2023/03/22 03:29:49;;;;;;;40.88;30.55;;;16.10;80.80;;;;;;6216600;23;20607;-79
2023/03/22 03:32:15;;;;;;;37.67;29.67;;;16.10;80.90;;;;;;6189999;23;20016;-79
2023/03/22 03:34:54;;;;;;;38.50;31.13;;;16.10;80.90;;;;;;6216308;23;20004;-79
2023/03/22 03:37:29;;;;;;;39.20;30.38;;;16.10;80.80;;;;;;6189548;23;20415;-79
2023/03/22 03:40:04;;;;;;;39.05;31.08;;;16.00;80.50;;;;;;6215735;23;20015;-79
2023/03/22 03:42:31;;;;;;;37.92;29.23;;;16.00;80.70;;;;;;6215885;23;20423;-79
2023/03/22 03:44:58;;;;;;;46.65;34.20;;;16.00;81.10;;;;;;6215940;23;20004;-79
2023/03/22 03:47:27;;;;;;;37.97;29.13;;;15.90;81.50;;;;;;6215958;23;20005;-79
2023/03/22 03:49:52;;;;;;;46.47;34.70;;;15.70;81.50;;;;;;6216626;23;20001;-80
2023/03/22 03:52:18;;;;;;;35.83;29.40;;;15.60;81.80;;;;;;6216639;23;20390;-80
2023/03/22 03:54:44;;;;;;;37.53;30.83;;;15.60;81.80;;;;;;6216138;23;20013;-79
2023/03/22 03:57:10;;;;;;;35.03;28.30;;;15.60;81.90;;;;;;6189486;23;20011;-80
2023/03/22 03:59:36;;;;;;;37.17;29.95;;;15.60;81.90;;;;;;6216121;23;20047;-80
2023/03/22 04:02:02;;;;;;;33.83;28.30;;;15.50;81.90;;;;;;6216055;23;20016;-79
2023/03/22 04:04:28;;;;;;;41.35;32.25;;;15.50;82.00;;;;;;6216128;23;20004;-79
2023/03/22 04:06:55;;;;;;;33.00;27.90;;;15.50;81.70;;;;;;6216200;23;20086;-79
2023/03/22 04:09:26;;;;;;;40.55;32.03;;;15.50;82.10;;;;;;6215639;23;20005;-79
2023/03/22 04:11:52;;;;;;;35.20;27.90;;;15.50;82.30;;;;;;6216091;23;20430;-79
2023/03/22 04:14:18;;;;;;;33.22;28.60;;;15.50;82.20;;;;;;6215314;23;20001;-80
2023/03/22 04:16:44;;;;;;;37.85;29.33;;;15.40;82.20;;;;;;6215464;23;20005;-79
2023/03/22 04:19:09;;;;;;;36.40;29.15;;;15.40;81.80;;;;;;6215455;23;20009;-79
2023/03/22 04:21:35;;;;;;;39.83;30.33;;;15.40;82.20;;;;;;6189296;23;20571;-80
2023/03/22 04:24:01;;;;;;;35.92;29.08;;;15.50;81.80;;;;;;6189044;23;20008;-80
2023/03/22 04:26:27;;;;;;;38.88;30.08;;;15.50;81.80;;;;;;6189482;23;20001;-80
2023/03/22 04:28:52;;;;;;;39.00;30.25;;;15.50;82.10;;;;;;6215866;23;20347;-80
2023/03/22 04:31:18;;;;;;;38.55;29.02;;;15.50;82.00;;;;;;6215748;23;20378;-80
2023/03/22 04:33:45;;;;;;;36.17;29.20;;;;;;;;;;6214689;23;20083;-80
2023/03/22 04:36:16;;;;;;;37.92;30.73;;;15.60;81.60;;;;;;6189279;23;20008;-80
2023/03/22 04:38:42;;;;;;;37.30;29.98;;;15.50;82.10;;;;;;6215633;23;20301;-80
2023/03/22 04:41:08;;;;;;;36.47;29.42;;;15.50;82.20;;;;;;6216118;23;20139;-79
2023/03/22 04:43:38;;;;;;;39.13;30.13;;;15.40;82.30;;;;;;6215247;23;20311;-78
2023/03/22 04:46:05;;;;;;;36.53;29.75;;;15.40;82.40;;;;;;6188743;23;20088;-79
2023/03/22 04:48:31;;;;;;;40.92;30.95;;;15.40;82.40;;;;;;6215230;23;20430;-79
2023/03/22 04:51:02;;;;;;;37.35;30.10;;;;;;;;;;6215867;23;20027;-78
2023/03/22 04:53:29;;;;;;;36.70;29.45;;;15.40;82.10;;;;;;6215626;23;20403;-78
2023/03/22 04:55:58;;;;;;;38.97;30.30;;;15.40;82.40;;;;;;6215301;23;20001;-78
2023/03/22 04:58:25;;;;;;;37.35;28.20;;;15.50;82.30;;;;;;6215017;23;20047;-78
2023/03/22 05:00:52;;;;;;;43.78;31.33;;;15.40;81.80;;;;;;6215680;23;20012;-78
2023/03/22 05:03:21;;;;;;;31.35;25.35;;;15.40;82.50;;;;;;6215856;23;20001;-78
2023/03/22 05:05:54;;;;;;;33.42;27.55;;;15.20;82.10;;;;;;6215500;23;20000;-79
2023/03/22 05:08:23;;;;;;;35.33;27.17;;;15.20;82.60;;;;;;6214976;23;20000;-78
2023/03/22 05:10:51;;;;;;;35.75;28.10;;;15.10;82.50;;;;;;6215685;23;20001;-80
2023/03/22 05:13:17;;;;;;;38.63;28.13;;;15.00;82.90;;;;;;6215327;23;19997;-79
2023/03/22 05:15:43;;;;;;;34.15;28.30;;;15.00;83.10;;;;;;6215577;23;20012;-80
2023/03/22 05:18:08;;;;;;;36.38;27.17;;;14.90;82.80;;;;;;6214856;23;20000;-79
2023/03/22 05:20:35;;;;;;;35.90;27.80;;;14.90;83.20;;;;;;6214986;23;20445;-81
2023/03/22 05:23:01;;;;;;;33.20;27.05;;;14.90;83.40;;;;;;6214549;23;20009;-80
2023/03/22 05:25:27;;;;;;;37.38;28.90;;;14.90;83.40;;;;;;6215267;23;20032;-80
2023/03/22 05:27:53;;;;;;;35.67;28.33;;;14.90;83.80;;;;;;6214874;23;20122;-80
2023/03/22 05:30:19;;;;;;;32.67;26.92;;;14.90;83.90;;;;;;6214511;23;20009;-80
2023/03/22 05:32:46;;;;;;;33.40;27.90;;;14.90;83.50;;;;;;6187471;23;20001;-80
2023/03/22 05:35:12;;;;;;;40.25;28.42;;;15.00;83.80;;;;;;6214519;23;20050;-80
2023/03/22 05:37:38;;;;;;;36.00;28.95;;;15.00;83.80;;;;;;6214413;23;20008;-80
2023/03/22 05:40:08;;;;;;;40.85;28.45;;;15.00;83.70;;;;;;6214800;23;20005;-80
2023/03/22 05:42:35;;;;;;;32.75;28.50;;;15.10;83.40;;;;;;6214116;23;20095;-80
2023/03/22 05:45:01;;;;;;;36.38;29.23;;;15.10;83.80;;;;;;6215056;23;20003;-79
2023/03/22 05:47:26;;;;;;;36.67;28.33;;;15.10;83.40;;;;;;6214736;23;20079;-80
2023/03/22 05:49:52;;;;;;;34.63;28.95;;;15.10;83.80;;;;;;6215136;23;20035;-80
2023/03/22 05:52:18;;;;;;;36.88;28.98;;;15.20;83.40;;;;;;6213836;23;20412;-80
2023/03/22 05:54:44;;;;;;;34.17;28.27;;;15.20;83.80;;;;;;6215125;23;20072;-80
2023/03/22 05:57:10;;;;;;;35.72;28.17;;;15.20;83.30;;;;;;6214725;23;20024;-79
2023/03/22 05:59:35;;;;;;;36.15;28.98;;;15.20;83.60;;;;;;6213946;23;20004;-78
2023/03/22 06:02:01;;;;;;;35.38;29.30;;;15.30;83.60;;;;;;6212996;23;20004;-77
2023/03/22 06:04:27;;;;;;;36.08;28.10;;;15.30;83.60;;;;;;6214179;23;20008;-77
2023/03/22 06:06:52;;;;;;;36.88;27.52;;;15.30;83.70;;;;;;6214304;23;20067;-78
2023/03/22 06:09:18;;;;;;;37.40;29.65;;;15.30;83.30;;;;;;6214487;23;19997;-79
2023/03/22 06:11:44;;;;;;;37.58;28.98;;;15.30;83.70;;;;;;6187738;23;20005;-78
2023/03/22 06:14:10;;;;;;;39.13;30.20;;;15.40;83.80;;;;;;6185994;23;20015;-78
2023/03/22 06:16:36;;;;;;;37.83;28.33;;;15.40;83.30;;;;;;6214588;23;20415;-78
2023/03/22 06:21:47;;;;;;;34.53;28.63;;;15.50;82.70;;;;;;6156936;23;20156;31
2023/03/22 06:24:12;;;;;;;35.67;29.35;;;15.50;82.80;;;;;;6093025;23;20339;-75
2023/03/22 06:26:38;;;;;;;39.78;29.00;;;15.50;83.30;;;;;;6095832;23;20081;-74
2023/03/22 06:29:04;;;;;;;42.47;31.38;;;15.50;83.40;;;;;;6095792;23;20002;-75
2023/03/22 06:31:29;;;;;;;34.67;27.80;;;15.40;83.40;;;;;;6096346;23;20158;-74
2023/03/22 06:33:55;;;;;;;38.60;29.85;;;15.50;84.10;;;;;;6096039;23;20013;-74
2023/03/22 06:36:21;;;;;;;40.65;31.30;;;15.50;83.20;;;;;;6096491;23;20495;-75
2023/03/22 06:38:48;;;;;;;36.63;30.58;;;15.50;83.60;;;;;;6097061;23;20022;-75
2023/03/22 06:41:13;;;;;;;39.08;30.92;;;15.50;83.70;;;;;;6096465;23;20351;-75
2023/03/22 06:43:39;;;;;;;38.83;31.33;;;15.50;83.50;;;;;;6095920;23;20433;-75
2023/03/22 06:46:05;;;;;;;41.60;32.50;;;15.60;83.60;;;;;;6097021;23;20030;-75
2023/03/22 06:48:30;;;;;;;33.53;25.83;;;15.60;83.30;;;;;;6096231;23;20003;-75
2023/03/22 06:50:56;;;;;;;20.17;16.42;;;15.70;84.30;;;;;;6096001;23;20033;-75
2023/03/22 06:53:22;;;;;;;30.15;21.80;;;15.80;86.10;;;;;;6068974;23;19999;-76
2023/03/22 06:55:47;;;;;;;20.75;15.00;;;16.00;87.10;;;;;;6095995;23;20002;-75
2023/03/22 06:58:13;;;;;;;38.53;32.15;;;16.10;88.60;;;;;;6096080;23;20086;-74
2023/03/22 07:00:38;;;;;;;43.10;32.97;;;16.30;85.20;;;;;;6095992;23;20034;-75
2023/03/22 07:03:04;;;;;;;44.83;32.92;;;16.30;85.00;;;;;;6095468;23;20006;-75
2023/03/22 07:05:30;;;;;;;40.17;32.15;;;16.20;83.50;;;;;;6093740;23;20006;-82
2023/03/22 07:07:56;;;;;;;42.55;34.63;;;16.20;83.90;;;;;;6070757;23;20081;-82
2023/03/22 07:10:22;;;;;;;44.05;34.53;;;16.30;83.70;;;;;;6094411;23;20053;-82
2023/03/22 07:12:47;;;;;;;45.80;35.10;;;16.30;83.80;;;;;;6095700;23;20133;-82
2023/03/22 07:15:13;;;;;;;43.78;33.92;;;16.30;83.80;;;;;;6094921;23;20082;-78
2023/03/22 07:17:39;;;;;;;44.72;33.88;;;16.30;83.70;;;;;;6093272;23;20013;-75
2023/03/22 07:20:05;;;;;;;40.67;33.90;;;16.40;83.80;;;;;;6092129;23;20002;-75
2023/03/22 07:22:31;;;;;;;40.67;32.83;;;16.40;83.80;;;;;;6092664;23;20010;-75
2023/03/22 07:24:57;;;;;;;44.38;34.78;;;16.40;83.70;;;;;;6095301;23;20058;-75
2023/03/22 07:27:22;;;;;;;42.05;34.60;;;16.50;83.70;;;;;;6094468;23;20467;-75
2023/03/22 07:29:48;;;;;;;44.20;35.03;;;16.50;83.60;;;;;;6095314;23;20002;-75
2023/03/22 07:32:15;;;;;;;45.38;33.03;;;16.60;83.50;;;;;;6094690;23;20040;-74
2023/03/22 07:34:41;;;;;;;44.38;33.35;;;16.60;83.40;;;;;;6094313;23;20021;-74
2023/03/22 07:37:07;;;;;;;45.08;34.28;;;16.70;83.00;;;;;;6095492;23;20006;-79
2023/03/22 07:39:34;;;;;;;47.17;35.13;;;16.80;83.30;;;;;;6096140;23;20002;-77
2023/03/22 07:41:59;;;;;;;43.80;34.53;;;16.90;82.60;;;;;;6095827;23;20564;-77
2023/03/22 07:44:25;;;;;;;37.25;27.90;;;16.90;83.00;;;;;;6095664;23;19999;-78
2023/03/22 07:46:51;;;;;;;42.13;32.75;;;16.90;83.30;;;;;;6096485;23;20061;-78
2023/03/22 07:49:17;;;;;;;39.80;31.50;;;17.00;83.30;;;;;;6095444;23;20066;-77
2023/03/22 07:51:43;;;;;;;43.25;32.80;;;17.10;82.70;;;;;;6095946;23;20329;-77
2023/03/22 07:54:09;;;;;;;38.45;29.98;;;17.20;82.50;;;;;;6096041;23;20002;-78
2023/03/22 07:56:35;;;;;;;36.13;27.98;;;17.30;82.50;;;;;;6095430;23;20003;-78
2023/03/22 07:59:00;;;;;;;44.22;34.10;;;17.40;82.80;;;;;;6096268;23;20007;-78
2023/03/22 08:01:26;;;;;;;39.15;32.47;;;17.50;82.60;;;;;;6095527;23;20026;-79
2023/03/22 08:03:52;;;;;;;41.97;33.10;;;17.60;82.10;;;;;;6095345;23;20518;-75
2023/03/22 08:06:20;;;;;;;40.17;31.42;;;17.70;81.90;;;;;;6093259;23;20030;-75
2023/03/22 08:08:46;;;;;;;40.80;32.00;;;17.80;81.60;;;;;;6095454;23;20134;-74
2023/03/22 08:11:12;;;;;;;42.55;33.53;;;17.90;81.30;;;;;;6096095;23;20038;-75
2023/03/22 08:13:38;;;;;;;46.10;33.92;;;17.90;81.40;;;;;;6097908;23;20006;-76
2023/03/22 08:16:05;;;;;;;44.67;35.95;;;18.00;81.30;;;;;;6097294;23;20002;-81
2023/03/22 08:18:31;;;;;;;46.15;34.13;;;18.00;80.40;;;;;;6096854;23;20002;-80
2023/03/22 08:20:58;;;;;;;40.58;32.22;;;18.00;80.00;;;;;;6070510;23;20317;-80
2023/03/22 08:23:26;;;;;;;43.22;33.60;;;18.10;80.20;;;;;;6094946;23;20010;-80
2023/03/22 08:25:53;;;;;;;47.80;38.58;;;18.20;80.40;;;;;;6096302;23;20006;-80
2023/03/22 08:28:19;;;;;;;38.25;31.10;;;18.20;77.70;;;;;;6096763;23;20085;-80
2023/03/22 08:30:46;;;;;;;45.15;33.63;;;18.20;79.30;;;;;;6063912;23;20098;-80
2023/03/22 08:33:13;;;;;;;42.97;33.58;;;18.30;79.30;;;;;;6095666;23;20006;-80
2023/03/22 08:35:39;;;;;;;42.20;32.20;;;18.50;79.20;;;;;;6095705;23;19998;-79
2023/03/22 08:38:05;;;;;;;41.75;33.58;;;18.60;79.00;;;;;;6096382;23;20054;-79
2023/03/22 08:40:31;;;;;;;41.65;34.17;;;18.80;77.60;;;;;;6095126;23;20010;-79
2023/03/22 08:42:58;;;;;;;41.85;34.13;;;18.80;78.00;;;;;;6068976;23;20018;-79
2023/03/22 08:45:24;;;;;;;39.03;32.42;;;19.00;77.10;;;;;;6069387;23;21053;-80
2023/03/22 08:47:50;;;;;;;40.25;31.42;;;19.10;77.20;;;;;;6095836;23;20007;-79
2023/03/22 08:50:16;;;;;;;42.45;33.05;;;19.20;76.50;;;;;;6069444;23;20479;-79
2023/03/22 08:52:42;;;;;;;39.97;32.05;;;19.30;76.50;;;;;;6096998;23;20006;-79
2023/03/22 08:55:08;;;;;;;40.50;32.20;;;19.40;76.40;;;;;;6096187;23;20082;-79
2023/03/22 08:57:35;;;;;;;46.78;32.97;;;19.50;76.10;;;;;;6096630;23;20006;-79
2023/03/22 09:00:00;;;;;;;39.17;32.28;;;19.70;75.60;;;;;;6096853;23;20011;-79
2023/03/22 09:02:27;;;;;;;38.58;32.03;;;19.70;74.40;;;;;;6094186;23;20095;-79
2023/03/22 09:04:53;;;;;;;49.88;34.08;;;19.70;75.20;;;;;;6096456;23;20002;-79
2023/03/22 09:07:23;;;;;;;41.83;32.08;;;19.90;75.20;;;;;;6097840;23;20422;-79
2023/03/22 09:09:49;;;;;;;42.33;32.72;;;20.00;74.80;;;;;;6096343;23;20030;-79
2023/03/22 09:12:15;;;;;;;40.22;31.20;;;20.20;73.90;;;;;;6097298;23;20006;-79
2023/03/22 09:14:41;;;;;;;45.00;33.67;;;20.20;74.40;;;;;;6097123;23;20045;-78
2023/03/22 09:17:07;;;;;;;41.00;32.90;;;20.30;73.80;;;;;;6096937;23;20054;-79
2023/03/22 09:19:33;;;;;;;50.80;33.05;;;20.50;73.20;;;;;;6096124;23;20022;-79
2023/03/22 09:21:58;;;;;;;41.67;33.00;;;20.60;72.70;;;;;;6095424;23;20013;-79
2023/03/22 09:24:24;;;;;;;47.53;34.25;;;20.80;72.30;;;;;;6097560;23;20038;-78
2023/03/22 09:26:50;;;;;;;44.30;33.55;;;20.90;71.70;;;;;;6097686;23;20001;-79
2023/03/22 09:29:16;;;;;;;45.63;32.67;;;20.90;71.20;;;;;;6097377;23;20002;-80
2023/03/22 09:31:43;;;;;;;37.50;31.63;;;21.00;71.10;;;;;;6097345;23;20006;-79
2023/03/22 09:34:09;;;;;;;41.25;29.50;;;21.10;71.00;;;;;;6096976;23;20006;-79
2023/03/22 09:36:34;;;;;;;40.63;31.52;;;21.30;70.50;;;;;;6097885;23;20076;-79
2023/03/22 09:39:04;;;;;;;38.58;31.13;;;21.40;70.20;;;;;;6097799;23;20013;-79
2023/03/22 09:41:39;;;;;;;35.53;27.00;;;21.50;69.90;;;;;;6071955;23;20007;-78
2023/03/22 09:44:11;;;;;;;31.48;23.52;;;21.60;69.60;;;;;;6097205;23;20003;-79
2023/03/22 09:46:41;;;;;;;34.30;24.25;;;21.70;68.90;;;;;;6097728;23;20298;-80
2023/03/22 09:49:15;;;;;;;34.70;24.88;;;21.90;68.50;;;;;;6097666;23;20009;-79
2023/03/22 09:51:44;;;;;;;29.77;22.85;;;22.00;68.00;;;;;;6097329;23;20082;-79
2023/03/22 09:54:28;;;;;;;36.40;27.05;;;22.20;67.70;;;;;;6097210;23;20006;-79
2023/03/22 09:57:05;;;;;;;34.03;25.45;;;22.20;66.30;;;;;;6096700;23;20010;-79
2023/03/22 09:59:55;;;;;;;38.60;28.27;;;22.30;66.90;;;;;;6097253;23;20081;-79
2023/03/22 10:02:36;;;;;;;38.08;28.40;;;22.30;66.80;;;;;;6097370;23;20002;-75
2023/03/22 10:05:29;;;;;;;31.20;26.35;;;22.50;66.30;;;;;;6096561;23;20009;-75
2023/03/22 10:08:22;;;;;;;38.17;26.83;;;22.70;66.80;;;;;;6097586;23;20036;-75
2023/03/22 10:10:49;;;;;;;38.47;27.60;;;22.80;66.60;;;;;;6093099;23;20073;-75
2023/03/22 10:13:24;;;;;;;36.47;30.58;;;22.90;66.00;;;;;;6096383;23;20003;-75
2023/03/22 10:15:55;;;;;;;35.22;27.83;;;23.00;65.70;;;;;;6095718;23;20010;-74
2023/03/22 10:18:25;;;;;;;40.17;30.38;;;23.20;65.70;;;;;;6096194;23;20010;-75
2023/03/22 10:21:03;;;;;;;34.20;29.05;;;23.20;65.10;;;;;;6095268;23;20335;-74
2023/03/22 10:23:41;;;;;;;33.65;26.45;;;23.30;64.70;;;;;;6096575;23;20333;-74
2023/03/22 10:26:11;;;;;;;42.45;30.25;;;23.40;64.80;;;;;;6096008;23;20025;-74
2023/03/22 10:28:43;;;;;;;30.90;23.42;;;23.50;64.40;;;;;;6095964;23;20006;-74
2023/03/22 10:31:20;;;;;;;31.45;24.98;;;23.50;65.00;;;;;;6094577;23;20416;-75
2023/03/22 10:34:02;;;;;;;31.38;22.85;;;23.70;65.10;;;;;;6093485;23;20093;-75
2023/03/22 10:36:33;;;;;;;29.08;21.55;;;23.80;64.50;;;;;;6094871;23;20006;-75
2023/03/22 10:39:27;;;;;;;29.00;20.70;;;23.90;64.10;;;;;;6070247;23;20006;-75
2023/03/22 10:41:56;;;;;;;25.27;18.98;;;24.00;63.60;;;;;;6094412;23;20013;-75
2023/03/22 10:44:24;;;;;;;23.95;15.88;;;24.30;62.00;;;;;;6096113;23;20006;-81
2023/03/22 10:46:53;;;;;;;22.30;15.88;;;24.30;61.30;;;;;;6095279;23;20006;-81
2023/03/22 10:49:43;;;;;;;14.18;12.00;;;24.40;60.90;;;;;;6096657;23;20317;-82
2023/03/22 10:52:41;;;;;;;14.55;10.93;;;24.50;59.40;;;;;;6096161;23;20333;-82
2023/03/22 10:55:14;;;;;;;14.57;12.90;;;24.70;57.90;;;;;;6084057;23;20025;-82
2023/03/22 10:57:42;;;;;;;20.33;14.82;;;24.80;57.90;;;;;;6095657;23;20030;-82
2023/03/22 11:00:11;;;;;;;16.52;12.48;;;24.80;58.10;;;;;;6096115;23;20057;-82
2023/03/22 11:02:49;;;;;;;12.63;9.60;;;25.00;56.60;;;;;;6095625;23;20010;-82
2023/03/22 11:05:24;;;;;;;24.00;17.45;;;25.00;56.90;;;;;;6095635;23;19998;-81
2023/03/22 11:07:50;;;;;;;14.80;12.23;;;25.10;56.40;;;;;;6095632;23;20524;-82
2023/03/22 11:10:33;;;;;;;15.88;11.73;;;25.20;55.80;;;;;;6096405;23;20005;-82
2023/03/22 11:13:08;;;;;;;13.20;10.50;;;25.20;55.70;;;;;;6094612;23;20007;-82
2023/03/22 11:15:37;;;;;;;15.88;12.50;;;25.40;54.60;;;;;;6096182;23;20382;-82
2023/03/22 11:18:17;;;;;;;14.30;11.93;;;25.50;53.50;;;;;;6096005;23;20007;-81
2023/03/22 11:20:55;;;;;;;14.60;11.95;;;25.60;53.50;;;;;;6095996;23;20254;-75
2023/03/22 11:23:21;;;;;;;18.73;12.40;;;25.60;54.00;;;;;;6051254;23;20098;-75
2023/03/22 11:25:48;;;;;;;16.40;13.40;;;25.80;53.40;;;;;;6065698;23;20466;-74
2023/03/22 11:28:21;;;;;;;15.07;13.23;;;25.90;54.10;;;;;;6066328;23;19999;-75
2023/03/22 11:31:08;;;;;;;15.52;13.00;;;26.00;53.80;;;;;;6067217;23;20007;-75
2023/03/22 11:33:35;;;;;;;21.65;15.95;;;26.00;52.80;;;;;;6066582;23;20367;-74
2023/03/22 11:36:13;;;;;;;16.25;13.32;;;26.20;53.60;;;;;;6041074;23;20017;-74
2023/03/22 11:38:42;;;;;;;16.65;14.57;;;26.30;53.20;;;;;;6066291;23;20030;-75
2023/03/22 11:41:18;;;;;;;18.75;15.38;;;26.60;54.00;;;;;;6066259;23;20007;-75
2023/03/22 11:43:52;;;;;;;18.75;15.77;;;27.20;53.10;;;;;;6068552;23;20002;-75
2023/03/22 11:46:18;;;;;;;18.67;16.67;;;28.20;51.90;;;;;;6068427;23;20356;-75
2023/03/22 11:48:47;;;;;;;17.33;15.35;;;29.30;49.90;;;;;;6067815;23;19998;-75
2023/03/22 11:51:15;;;;;;;18.08;16.13;;;30.30;48.50;;;;;;6068157;23;20414;-75
2023/03/22 11:53:45;;;;;;;18.20;14.85;;;31.10;46.60;;;;;;6069067;23;20066;-75
2023/03/22 11:56:16;;;;;;;18.80;16.27;;;31.80;45.00;;;;;;6067530;23;20007;-75
2023/03/22 11:59:17;;;;;;;19.30;15.93;;;32.30;44.50;;;;;;6068230;23;20302;-77
2023/03/22 12:02:02;;;;;;;17.65;14.60;;;32.70;44.10;;;;;;6004472;23;20663;-75
2023/03/22 12:04:33;;;;;;;16.30;14.60;;;33.10;43.40;;;;;;6068340;23;19998;-76
2023/03/22 12:07:02;;;;;;;20.73;15.80;;;33.50;42.60;;;;;;6068244;23;20026;-76
2023/03/22 12:09:57;;;;;;;14.00;12.50;;;33.60;41.10;;;;;;6068664;23;20050;-76
2023/03/22 12:12:30;;;;;;;19.02;14.27;;;33.70;41.80;;;;;;6069441;23;20003;-76
2023/03/22 12:15:13;;;;;;;21.17;17.20;;;33.70;41.60;;;;;;6069904;23;20034;-77
2023/03/22 12:18:18;;;;;;;18.17;13.98;;;33.50;40.10;;;;;;6070091;23;20014;-76
2023/03/22 12:20:55;;;;;;;14.23;12.60;;;33.40;40.70;;;;;;6069882;23;20007;-76
2023/03/22 12:23:24;;;;;;;15.05;11.68;;;33.20;41.30;;;;;;6087771;23;20073;-76
2023/03/22 12:26:01;;;;;;;15.30;11.53;;;32.90;41.10;;;;;;6098036;23;20062;-75
2023/03/22 12:28:56;;;;;;;16.33;13.57;;;32.70;40.70;;;;;;6097966;23;20007;-76
2023/03/22 12:31:26;;;;;;;12.63;11.32;;;32.70;41.00;;;;;;6093278;23;20034;-76
2023/03/22 12:33:58;;;;;;;11.75;10.23;;;32.50;41.20;;;;;;6097857;23;20303;-76
2023/03/22 12:36:40;;;;;;;14.20;12.70;;;32.30;41.70;;;;;;6097434;23;20003;-76
2023/03/22 12:39:10;;;;;;;14.43;12.18;;;32.30;41.50;;;;;;6098246;23;20040;-76
2023/03/22 12:41:35;;;;;;;;;;;32.30;41.00;;;;;;6098101;23;20717;-76
2023/03/22 12:44:15;;;;;;;15.82;10.88;;;32.30;40.20;;;;;;6097330;23;19905;-76
2023/03/22 12:47:06;;;;;;;12.60;10.57;;;32.30;40.50;;;;;;6097683;23;20002;-75